JST9999 YMAV-YMML
Flight info
| Callsign | JST9999 |
|---|---|
| Flight time | N/A |
| Altitude | 15000 |
| Route | DCT |
| Aircraft | A320/M-SDE3FGHIRWY/LB1 |
Departure
| Time | 2026-04-30 10:39 |
|---|---|
| Airport | Melbourne Avalon International Airport (YMAV) |
Arrival
| Time | N/A |
|---|---|
| Airport | Melbourne Airport (YMML) |
| Time | Latitude | Longitude | Altitude | Speed | Heading |
|---|---|---|---|---|---|
| 2026-04-30 10:13 | -38.02724 | 144.47370 | 41 ft | 0 kts | 8° |
| 2026-04-30 10:26 | -38.02725 | 144.47370 | 41 ft | 0 kts | 8° |
| 2026-04-30 10:26 | -38.02738 | 144.47368 | 38 ft | 3 kts | 8° |
| 2026-04-30 10:27 | -38.02758 | 144.47363 | 39 ft | 3 kts | 8° |
| 2026-04-30 10:27 | -38.02776 | 144.47360 | 40 ft | 3 kts | 18° |
| 2026-04-30 10:27 | -38.02791 | 144.47349 | 41 ft | 3 kts | 63° |
| 2026-04-30 10:27 | -38.02797 | 144.47325 | 41 ft | 3 kts | 91° |
| 2026-04-30 10:28 | -38.02795 | 144.47301 | 41 ft | 2 kts | 96° |
| 2026-04-30 10:28 | -38.02795 | 144.47293 | 41 ft | 0 kts | 95° |
| 2026-04-30 10:31 | -38.02795 | 144.47294 | 41 ft | 0 kts | 95° |
| 2026-04-30 10:31 | -38.02796 | 144.47310 | 41 ft | 3 kts | 96° |
| 2026-04-30 10:32 | -38.02810 | 144.47345 | 39 ft | 6 kts | 134° |
| 2026-04-30 10:32 | -38.02856 | 144.47360 | 41 ft | 8 kts | 179° |
| 2026-04-30 10:32 | -38.02922 | 144.47350 | 39 ft | 11 kts | 186° |
| 2026-04-30 10:32 | -38.03005 | 144.47339 | 41 ft | 13 kts | 187° |
| 2026-04-30 10:33 | -38.03103 | 144.47311 | 41 ft | 16 kts | 199° |
| 2026-04-30 10:33 | -38.03197 | 144.47222 | 41 ft | 18 kts | 232° |
| 2026-04-30 10:33 | -38.03283 | 144.47090 | 42 ft | 21 kts | 217° |
| 2026-04-30 10:33 | -38.03429 | 144.47039 | 41 ft | 23 kts | 185° |
| 2026-04-30 10:34 | -38.03600 | 144.47009 | 42 ft | 26 kts | 187° |
| 2026-04-30 10:34 | -38.03791 | 144.46977 | 42 ft | 29 kts | 187° |
| 2026-04-30 10:34 | -38.03999 | 144.46941 | 42 ft | 32 kts | 188° |
| 2026-04-30 10:34 | -38.04226 | 144.46903 | 42 ft | 34 kts | 187° |
| 2026-04-30 10:35 | -38.04468 | 144.46863 | 42 ft | 36 kts | 187° |
| 2026-04-30 10:35 | -38.04722 | 144.46820 | 42 ft | 38 kts | 187° |
| 2026-04-30 10:35 | -38.04990 | 144.46776 | 44 ft | 39 kts | 188° |
| 2026-04-30 10:35 | -38.05224 | 144.46739 | 42 ft | 28 kts | 190° |
| 2026-04-30 10:36 | -38.05384 | 144.46705 | 42 ft | 19 kts | 201° |
| 2026-04-30 10:36 | -38.05433 | 144.46642 | 44 ft | 0 kts | 242° |
| 2026-04-30 10:37 | -38.05437 | 144.46630 | 44 ft | 3 kts | 248° |
| 2026-04-30 10:37 | -38.05441 | 144.46594 | 44 ft | 6 kts | 266° |
| 2026-04-30 10:37 | -38.05438 | 144.46536 | 44 ft | 8 kts | 283° |
| 2026-04-30 10:37 | -38.05399 | 144.46495 | 45 ft | 9 kts | 353° |
| 2026-04-30 10:38 | -38.05377 | 144.46495 | 44 ft | 0 kts | 5° |
| 2026-04-30 10:38 | -38.05297 | 144.46508 | 42 ft | 44 kts | 8° |
| 2026-04-30 10:38 | -38.04693 | 144.46611 | 41 ft | 129 kts | 7° |
| 2026-04-30 10:38 | -38.03703 | 144.46788 | 278 ft | 164 kts | 6° |
| 2026-04-30 10:39 | -38.02551 | 144.46960 | 1120 ft | 172 kts | 7° |
| 2026-04-30 10:39 | -38.01328 | 144.47111 | 2102 ft | 182 kts | 5° |
| 2026-04-30 10:39 | -37.99998 | 144.47258 | 2723 ft | 204 kts | 4° |
| 2026-04-30 10:39 | -37.98552 | 144.47746 | 3140 ft | 231 kts | 28° |
| 2026-04-30 10:40 | -37.97378 | 144.49285 | 3695 ft | 257 kts | 60° |
| 2026-04-30 10:40 | -37.96988 | 144.50747 | 4239 ft | 268 kts | 79° |
| 2026-04-30 10:40 | -37.97191 | 144.53924 | 4865 ft | 279 kts | 100° |
| 2026-04-30 10:40 | -37.97482 | 144.55529 | 4947 ft | 279 kts | 101° |
| 2026-04-30 10:41 | -37.97598 | 144.56142 | 4962 ft | 279 kts | 102° |